Time;durP1;ratioP1;P1;durP2;ratioP2;P2;SDS_P1;SDS_P2;PMS_P1;PMS_P2;Temp;Humidity;BMP_temperature;BMP_pressure;BME280_temperature;BME280_humidity;BME280_pressure;Samples;Min_cycle;Max_cycle;Signal;HPM_P1;HPM_P2
2020/12/23 00:00:57;;;;;;;33.63;28.07;;;;;;;10.22;100.00;98069.56;5003193;28;20217;-70
2020/12/23 00:03:24;;;;;;;15.07;13.47;;;;;;;10.32;100.00;98064.13;5003118;28;20483;-70
2020/12/23 00:05:51;;;;;;;7.50;6.80;;;;;;;10.29;100.00;98075.06;5006299;28;20236;-70
2020/12/23 00:08:18;;;;;;;6.33;5.87;;;;;;;10.31;100.00;98069.63;5010809;28;20705;-69
2020/12/23 00:10:45;;;;;;;10.27;9.47;;;;;;;10.36;100.00;98070.78;5004297;28;20364;-69
2020/12/23 00:13:15;;;;;;;6.90;6.50;;;;;;;10.25;100.00;98053.38;5006910;28;21039;-70
2020/12/23 00:15:42;;;;;;;11.83;10.93;;;;;;;10.28;100.00;98063.66;5010357;28;20212;-72
2020/12/23 00:18:09;;;;;;;10.03;9.30;;;;;;;10.37;100.00;98059.19;5007699;28;20243;-70
2020/12/23 00:20:36;;;;;;;15.10;13.80;;;;;;;10.28;100.00;98054.84;5000993;28;20232;-71
2020/12/23 00:23:03;;;;;;;10.37;9.57;;;;;;;10.25;100.00;98057.84;5005677;28;20209;-70
2020/12/23 00:25:32;;;;;;;5.70;5.30;;;;;;;10.28;100.00;98062.81;5005019;28;20617;-69
2020/12/23 00:27:59;;;;;;;5.33;4.93;;;;;;;10.30;100.00;98058.19;5008502;28;20243;-70
2020/12/23 00:30:26;;;;;;;4.83;4.43;;;;;;;10.35;100.00;98073.59;5007495;28;20829;-69
2020/12/23 00:32:53;;;;;;;8.03;7.43;;;;;;;10.38;100.00;98070.63;5004008;28;20212;-71
2020/12/23 00:35:20;;;;;;;16.30;14.80;;;;;;;10.34;100.00;98069.28;4997999;28;20201;-70
2020/12/23 00:37:47;;;;;;;5.40;5.00;;;;;;;10.47;100.00;98066.22;5008337;28;20239;-70
2020/12/23 00:40:14;;;;;;;8.17;7.60;;;;;;;10.36;100.00;98067.31;5004843;28;20220;-72
2020/12/23 00:42:42;;;;;;;13.57;12.50;;;;;;;10.37;100.00;98061.03;5008486;28;20213;-70
2020/12/23 00:45:09;;;;;;;9.40;8.57;;;;;;;10.37;100.00;98059.19;5002946;28;20590;-70
2020/12/23 00:47:41;;;;;;;7.03;6.47;;;;;;;10.35;100.00;98061.16;5003490;28;20229;-72
2020/12/23 00:50:08;;;;;;;6.73;6.13;;;;;;;10.39;100.00;98065.16;5006951;28;20205;-69
2020/12/23 00:52:35;;;;;;;9.13;8.00;;;;;;;10.41;100.00;98059.72;5000762;28;20293;-69
2020/12/23 00:55:02;;;;;;;4.27;3.40;;;;;;;10.45;100.00;98058.41;5001664;28;20521;-70
2020/12/23 00:57:29;;;;;;;7.97;7.37;;;;;;;10.46;100.00;98065.38;5003369;28;20206;-71
2020/12/23 00:59:56;;;;;;;3.03;2.53;;;;;;;10.46;100.00;98068.03;5001591;28;20235;-70
2020/12/23 01:02:23;;;;;;;11.60;10.50;;;;;;;10.55;100.00;98071.53;5008473;28;20641;-71
2020/12/23 01:04:50;;;;;;;7.87;7.27;;;;;;;10.56;100.00;98062.59;5004965;28;20204;-70
2020/12/23 01:07:17;;;;;;;5.83;4.30;;;;;;;10.50;100.00;98068.53;5005121;28;20208;-71
2020/12/23 01:09:44;;;;;;;25.03;19.67;;;;;;;10.49;100.00;98074.84;5004858;28;20236;-71
2020/12/23 01:12:11;;;;;;;14.43;11.67;;;;;;;10.41;100.00;98079.09;5004845;28;20237;-70
2020/12/23 01:14:39;;;;;;;21.83;18.40;;;;;;;10.48;100.00;98075.81;5005068;28;20229;-70
2020/12/23 01:17:07;;;;;;;22.53;20.23;;;;;;;10.39;100.00;98073.09;5002137;28;20729;-70
2020/12/23 01:19:34;;;;;;;16.73;14.97;;;;;;;10.46;100.00;98080.47;4998468;28;20220;-69
2020/12/23 01:22:01;;;;;;;28.73;25.60;;;;;;;10.41;100.00;98076.44;5000972;28;20370;-69
2020/12/23 01:24:28;;;;;;;11.03;9.60;;;;;;;10.38;100.00;98076.75;5003288;28;20359;-71
2020/12/23 01:26:55;;;;;;;21.63;17.77;;;;;;;10.33;100.00;98081.69;5001789;28;20501;-71
2020/12/23 01:29:22;;;;;;;42.97;33.77;;;;;;;10.31;100.00;98081.03;5000530;28;20408;-71
2020/12/23 01:31:49;;;;;;;29.83;24.43;;;;;;;10.39;100.00;98081.03;5000915;28;20613;-70
2020/12/23 01:34:16;;;;;;;14.87;10.03;;;;;;;10.46;100.00;98067.22;5000211;28;20237;-70
2020/12/23 01:36:48;;;;;;;16.90;9.53;;;;;;;10.41;100.00;98059.72;5002653;28;20664;-70
2020/12/23 01:39:15;;;;;;;8.80;7.90;;;;;;;10.39;100.00;98057.19;5001204;28;20236;-71
2020/12/23 01:41:42;;;;;;;8.70;7.93;;;;;;;10.31;100.00;98049.25;5002502;28;20209;-70
2020/12/23 01:44:09;;;;;;;4.67;4.27;;;;;;;10.27;100.00;98062.00;5001663;28;20288;-70
2020/12/23 01:46:37;;;;;;;18.80;15.17;;;;;;;10.24;100.00;98057.03;4997273;28;20212;-69
2020/12/23 01:49:07;;;;;;;21.30;15.30;;;;;;;10.36;100.00;98060.19;4998072;28;20221;-71
2020/12/23 01:51:35;;;;;;;8.60;7.60;;;;;;;10.41;100.00;98060.56;4995596;28;20825;-70
2020/12/23 01:54:03;;;;;;;21.27;16.13;;;;;;;10.37;100.00;98058.38;5003729;28;20234;-71
2020/12/23 01:56:31;;;;;;;25.27;17.47;;;;;;;10.32;100.00;98048.25;5001537;28;20806;-71
2020/12/23 01:58:58;;;;;;;38.63;28.30;;;;;;;10.32;100.00;98053.53;5000597;28;20221;-70
2020/12/23 02:01:26;;;;;;;28.30;19.17;;;;;;;10.27;100.00;98039.97;4997081;28;20209;-71
2020/12/23 02:03:53;;;;;;;18.30;14.63;;;;;;;10.37;100.00;98038.00;4998939;28;20953;-71
2020/12/23 02:06:20;;;;;;;23.07;17.93;;;;;;;10.40;100.00;98036.88;4996359;28;20205;-70
2020/12/23 02:08:50;;;;;;;12.60;11.00;;;;;;;10.41;100.00;98028.75;5001778;28;20225;-72
2020/12/23 02:11:18;;;;;;;10.53;7.03;;;;;;;10.41;100.00;98028.75;5002036;28;20209;-71
2020/12/23 02:13:46;;;;;;;6.47;5.30;;;;;;;10.59;100.00;98030.47;5001021;28;20743;-70
2020/12/23 02:16:13;;;;;;;9.00;7.73;;;;;;;10.59;100.00;98027.81;5001042;28;20223;-70
2020/12/23 02:18:43;;;;;;;6.00;5.23;;;;;;;10.68;100.00;98028.66;4997089;28;20235;-70
2020/12/23 02:21:22;;;;;;;6.40;5.70;;;;;;;10.57;100.00;98027.97;5002634;28;20451;-71
2020/12/23 02:23:51;;;;;;;11.40;8.40;;;;;;;10.53;100.00;98031.13;5002569;28;20444;-71
2020/12/23 02:26:18;;;;;;;7.67;6.93;;;;;;;10.62;100.00;98026.66;4997476;28;20216;-69
2020/12/23 02:28:45;;;;;;;23.40;16.43;;;;;;;10.49;100.00;98037.75;4998681;28;20229;-70
2020/12/23 02:31:12;;;;;;;4.47;3.93;;;;;;;10.58;100.00;98023.50;5001677;28;20227;-71
2020/12/23 02:33:40;;;;;;;7.03;6.33;;;;;;;10.55;100.00;98031.78;5001208;28;20665;-70
2020/12/23 02:36:07;;;;;;;7.50;5.90;;;;;;;10.54;100.00;98028.28;4995271;28;20201;-70
2020/12/23 02:38:34;;;;;;;6.67;3.73;;;;;;;10.55;100.00;98019.34;5004578;28;20221;-72
2020/12/23 02:41:02;;;;;;;3.37;2.93;;;;;;;10.55;100.00;98026.50;4999891;28;20545;-71
2020/12/23 02:43:29;;;;;;;7.33;6.60;;;;;;;10.51;100.00;98025.16;5001986;28;20201;-72
2020/12/23 02:45:56;;;;;;;2.43;2.23;;;;;;;10.44;100.00;98014.38;5000131;28;20205;-71
2020/12/23 02:48:23;;;;;;;3.80;2.73;;;;;;;10.48;100.00;98012.25;5000475;28;20440;-71
2020/12/23 02:50:50;;;;;;;3.80;3.47;;;;;;;10.45;100.00;98008.06;5000540;28;20205;-70
2020/12/23 02:53:17;;;;;;;1.33;1.30;;;;;;;10.52;100.00;98001.13;4997786;28;20209;-71
2020/12/23 02:55:44;;;;;;;2.23;2.10;;;;;;;10.42;100.00;98005.75;5000490;28;20943;-70
2020/12/23 02:58:12;;;;;;;2.40;2.20;;;;;;;10.47;100.00;98002.63;4998527;28;20740;-70
2020/12/23 03:00:39;;;;;;;3.33;1.90;;;;;;;10.38;100.00;98002.56;5001376;28;20642;-70
2020/12/23 03:03:06;;;;;;;1.20;1.20;;;;;;;10.37;100.00;98000.91;5000905;28;20209;-72
2020/12/23 03:05:33;;;;;;;2.60;1.27;;;;;;;10.32;100.00;98005.88;4995352;28;20213;-72
2020/12/23 03:08:00;;;;;;;4.37;1.50;;;;;;;10.26;100.00;97993.28;4996363;28;20236;-71
2020/12/23 03:10:27;;;;;;;2.03;1.93;;;;;;;10.26;100.00;97995.91;5000417;28;20433;-71
2020/12/23 03:12:54;;;;;;;2.90;1.70;;;;;;;10.27;100.00;98000.22;4999295;28;20200;-72
2020/12/23 03:15:22;;;;;;;1.47;1.40;;;;;;;10.19;100.00;97995.72;4997413;28;20671;-71
2020/12/23 03:17:49;;;;;;;1.43;1.33;;;;;;;10.18;100.00;97985.31;4998159;28;20236;-72
2020/12/23 03:20:16;;;;;;;1.43;1.30;;;;;;;10.15;100.00;97994.41;4999903;28;20211;-71
2020/12/23 03:22:43;;;;;;;1.33;1.33;;;;;;;10.19;100.00;97987.78;5002969;28;20209;-70
2020/12/23 03:25:10;;;;;;;1.20;1.20;;;;;;;10.20;100.00;97986.78;4999846;28;20205;-70
2020/12/23 03:27:38;;;;;;;1.30;1.30;;;;;;;10.22;100.00;97976.88;4998936;28;20673;-70
2020/12/23 03:30:05;;;;;;;1.33;1.33;;;;;;;10.18;100.00;97980.84;4996141;28;20259;-71
2020/12/23 03:32:33;;;;;;;1.40;1.40;;;;;;;10.24;100.00;97972.25;4998593;28;20296;-72
2020/12/23 03:35:16;;;;;;;1.43;1.37;;;;;;;10.20;100.00;97970.91;5003946;28;20324;-72
2020/12/23 03:37:43;;;;;;;1.30;1.30;;;;;;;10.20;100.00;97968.25;5008234;28;20259;-71
2020/12/23 03:40:10;;;;;;;1.23;1.13;;;;;;;10.53;100.00;97978.13;5003887;28;20519;-71
2020/12/23 03:42:37;;;;;;;2.00;1.60;;;;;;;10.57;100.00;97966.19;5002893;28;20237;-70
2020/12/23 03:45:04;;;;;;;1.20;1.20;;;;;;;10.53;100.00;97975.47;5002755;28;20205;-72
2020/12/23 03:47:32;;;;;;;1.20;1.20;;;;;;;10.51;100.00;97980.13;5012430;28;20609;-71
2020/12/23 03:49:59;;;;;;;1.10;0.97;;;;;;;10.59;100.00;97980.13;5004230;28;20201;-72
2020/12/23 03:52:26;;;;;;;1.83;1.40;;;;;;;10.67;100.00;97974.81;5002069;28;20212;-71
2020/12/23 03:54:53;;;;;;;1.10;1.10;;;;;;;10.61;100.00;97983.44;5004849;28;20232;-72
2020/12/23 03:57:20;;;;;;;1.73;1.07;;;;;;;10.59;100.00;97985.41;5003856;28;20570;-71
2020/12/23 03:59:47;;;;;;;0.80;0.80;;;;;;;10.59;100.00;97979.28;5003389;28;20201;-71
2020/12/23 04:02:14;;;;;;;1.40;1.13;;;;;;;10.60;100.00;98000.31;5007743;28;20217;-72
2020/12/23 04:04:42;;;;;;;1.00;1.00;;;;;;;10.59;100.00;97979.28;5003546;28;20197;-72
2020/12/23 04:07:09;;;;;;;1.07;1.07;;;;;;;10.56;100.00;97980.44;5001349;28;20215;-72
2020/12/23 04:09:36;;;;;;;1.20;1.20;;;;;;;10.59;100.00;97987.22;5004582;28;20688;-72
2020/12/23 04:12:03;;;;;;;1.13;1.13;;;;;;;10.58;100.00;97975.81;5000070;28;20665;-73
2020/12/23 04:14:30;;;;;;;1.10;1.00;;;;;;;10.62;100.00;97977.13;5006909;28;20220;-72
2020/12/23 04:16:57;;;;;;;1.63;1.60;;;;;;;10.60;100.00;97991.53;5005023;28;20224;-71
2020/12/23 04:19:24;;;;;;;1.13;1.13;;;;;;;10.51;100.00;97982.75;5004665;28;20731;-71
2020/12/23 04:21:52;;;;;;;0.90;0.90;;;;;;;10.44;100.00;97987.88;5000071;28;20351;-72
2020/12/23 04:24:19;;;;;;;2.10;1.30;;;;;;;10.40;100.00;97986.56;5003794;28;20219;-72
2020/12/23 04:26:46;;;;;;;1.27;1.20;;;;;;;10.37;100.00;97994.78;5003774;28;20281;-72
2020/12/23 04:29:13;;;;;;;1.27;1.27;;;;;;;10.27;100.00;98002.88;5003674;28;20225;-70
2020/12/23 04:31:40;;;;;;;1.20;1.20;;;;;;;10.30;100.00;98001.75;5003984;28;20201;-71
2020/12/23 04:34:07;;;;;;;1.20;1.20;;;;;;;10.24;100.00;97988.16;5001795;28;20221;-72
2020/12/23 04:36:34;;;;;;;1.70;1.60;;;;;;;10.25;100.00;97995.09;4998642;28;20634;-72
2020/12/23 04:39:03;;;;;;;1.60;1.50;;;;;;;10.22;100.00;97999.88;5000530;28;20232;-72
2020/12/23 04:41:34;;;;;;;1.27;1.27;;;;;;;10.26;100.00;97995.91;4994881;28;20208;-71
2020/12/23 04:44:01;;;;;;;1.47;1.37;;;;;;;10.20;100.00;97985.97;5001658;28;20205;-72
2020/12/23 04:46:30;;;;;;;1.83;1.73;;;;;;;10.15;100.00;97991.75;4998867;28;20212;-73
2020/12/23 04:48:58;;;;;;;1.70;1.60;;;;;;;10.19;100.00;97986.97;5003131;28;20263;-73
2020/12/23 04:51:29;;;;;;;1.30;1.20;;;;;;;10.12;100.00;97989.44;5002503;28;20385;-72
2020/12/23 04:53:56;;;;;;;1.37;1.37;;;;;;;10.12;100.00;97987.63;4999445;28;20312;-70
2020/12/23 04:56:26;;;;;;;2.03;1.40;;;;;;;10.11;100.00;97996.56;5002573;28;20598;-71
2020/12/23 04:58:53;;;;;;;2.37;1.33;;;;;;;10.04;100.00;97990.25;5001069;28;20232;-71
2020/12/23 05:01:21;;;;;;;1.30;1.30;;;;;;;10.10;100.00;97991.41;5002597;28;20330;-72
2020/12/23 05:03:48;;;;;;;1.03;1.03;;;;;;;10.09;100.00;97987.09;5001899;28;20862;-70
2020/12/23 05:06:18;;;;;;;1.47;1.37;;;;;;;10.06;100.00;97992.72;5001982;28;20200;-72
2020/12/23 05:08:45;;;;;;;1.47;1.47;;;;;;;10.13;100.00;97997.22;5002409;28;20235;-71
2020/12/23 05:11:14;;;;;;;1.60;1.50;;;;;;;10.04;100.00;97992.06;5002016;28;20208;-73
2020/12/23 05:13:43;;;;;;;2.43;2.23;;;;;;;9.95;100.00;97996.47;5002387;28;20201;-71
2020/12/23 05:16:11;;;;;;;2.10;2.00;;;;;;;9.97;100.00;97987.41;5002883;28;20217;-73
2020/12/23 05:18:40;;;;;;;1.50;1.50;;;;;;;9.93;100.00;97993.16;5000872;28;20217;-70
2020/12/23 05:21:14;;;;;;;1.83;1.73;;;;;;;9.95;100.00;97988.53;4997436;28;20323;-71
2020/12/23 05:23:46;;;;;;;1.83;1.73;;;;;;;9.97;100.00;97986.56;5001625;28;20224;-72
2020/12/23 05:26:15;;;;;;;1.70;1.67;;;;;;;10.01;100.00;97992.38;5002851;28;20251;-73
2020/12/23 05:28:44;;;;;;;1.87;1.77;;;;;;;10.03;100.00;97999.16;5006807;28;20224;-71
2020/12/23 05:31:13;;;;;;;2.60;1.60;;;;;;;10.01;100.00;97997.69;5002429;28;20208;-72
2020/12/23 05:33:42;;;;;;;2.30;2.10;;;;;;;9.99;100.00;97998.66;5002116;28;20197;-72
2020/12/23 05:36:14;;;;;;;1.60;1.50;;;;;;;9.99;100.00;97998.66;4997299;28;20288;-72
2020/12/23 05:38:45;;;;;;;1.43;1.43;;;;;;;9.99;100.00;97988.06;5001504;28;20241;-71
2020/12/23 05:41:16;;;;;;;1.90;1.80;;;;;;;9.99;100.00;97987.22;5003176;28;20558;-71
2020/12/23 05:43:44;;;;;;;2.33;2.23;;;;;;;9.93;100.00;97994.00;5003385;28;20575;-72
2020/12/23 05:46:12;;;;;;;2.30;2.20;;;;;;;9.96;100.00;97988.41;5003472;28;20254;-71
2020/12/23 05:48:41;;;;;;;2.37;2.10;;;;;;;9.91;100.00;97995.16;5002645;28;20358;-71
2020/12/23 05:51:09;;;;;;;1.77;1.53;;;;;;;9.90;100.00;97993.50;5001946;28;20209;-71
2020/12/23 05:53:38;;;;;;;1.30;1.20;;;;;;;9.88;100.00;97992.81;5002025;28;20208;-72
2020/12/23 05:56:07;;;;;;;1.83;1.70;;;;;;;9.81;100.00;97995.28;5003698;28;21037;-73
2020/12/23 05:58:36;;;;;;;2.23;2.03;;;;;;;9.83;100.00;97991.50;5000408;28;20240;-72
2020/12/23 06:01:05;;;;;;;2.30;2.20;;;;;;;9.83;100.00;98001.22;5002631;28;20205;-73
2020/12/23 06:03:43;;;;;;;2.73;2.53;;;;;;;9.80;100.00;97998.91;4999701;28;20201;-71
2020/12/23 06:06:12;;;;;;;2.87;1.93;;;;;;;9.90;100.00;97996.13;4999250;28;20209;-71
2020/12/23 06:08:40;;;;;;;2.30;2.20;;;;;;;9.87;100.00;97983.22;5000170;28;20225;-70
2020/12/23 06:11:27;;;;;;;1.70;1.70;;;;;;;9.84;100.00;97985.22;5001946;28;20209;-70
2020/12/23 06:14:19;;;;;;;2.00;1.90;;;;;;;9.81;100.00;97996.13;4997672;28;20209;-71
2020/12/23 06:16:49;;;;;;;2.37;2.27;;;;;;;9.89;100.00;97989.19;5000133;28;20208;-73
2020/12/23 06:19:28;;;;;;;2.50;2.30;;;;;;;9.93;100.00;97988.72;5001274;28;20312;-72
2020/12/23 06:21:56;;;;;;;2.10;2.00;;;;;;;9.89;100.00;97990.03;4999107;28;20204;-72
2020/12/23 06:24:24;;;;;;;2.20;2.10;;;;;;;9.82;100.00;97994.28;5000568;28;20720;-73
2020/12/23 06:26:53;;;;;;;1.90;1.80;;;;;;;9.80;100.00;98002.41;4998015;28;20641;-71
2020/12/23 06:29:23;;;;;;;1.80;1.70;;;;;;;9.83;100.00;98002.06;5000137;28;20517;-73
2020/12/23 06:31:53;;;;;;;2.33;2.23;;;;;;;9.75;100.00;97993.25;4994530;28;20209;-72
2020/12/23 06:34:21;;;;;;;2.73;2.23;;;;;;;9.80;100.00;97978.56;4998420;28;20884;-70
2020/12/23 06:36:50;;;;;;;3.03;2.83;;;;;;;9.85;100.00;97978.09;4999188;28;20205;-71
2020/12/23 06:39:38;;;;;;;2.77;2.50;;;;;;;9.82;100.00;97970.47;5004779;28;20665;-72
2020/12/23 06:42:26;;;;;;;4.60;2.63;;;;;;;9.83;100.00;97969.47;5007902;28;20211;-74
2020/12/23 06:44:55;;;;;;;3.40;3.10;;;;;;;9.87;100.00;97957.59;5000176;28;20200;-75
2020/12/23 06:47:24;;;;;;;2.93;2.73;;;;;;;9.85;100.00;97955.09;5001572;28;20780;-75
2020/12/23 06:49:52;;;;;;;3.50;2.40;;;;;;;9.79;100.00;97950.44;5003677;28;20584;-73
2020/12/23 06:52:33;;;;;;;2.57;2.37;;;;;;;9.70;100.00;97946.94;5004549;28;20208;-71
2020/12/23 06:55:01;;;;;;;2.10;2.00;;;;;;;9.73;100.00;97948.44;4996852;28;20235;-71
2020/12/23 06:57:50;;;;;;;2.40;2.30;;;;;;;9.74;100.00;97955.41;5000026;28;20554;-71
2020/12/23 07:00:50;;;;;;;2.53;2.43;;;;;;;9.67;100.00;97954.38;4997110;28;20282;-73
2020/12/23 07:03:18;;;;;;;2.80;2.60;;;;;;;9.70;100.00;97946.94;4999791;28;20744;-73
2020/12/23 07:05:47;;;;;;;2.30;2.20;;;;;;;9.66;100.00;97950.91;5000818;28;20592;-71
2020/12/23 07:08:16;;;;;;;2.90;2.70;;;;;;;9.59;100.00;97957.81;4998991;28;20229;-71
2020/12/23 07:10:51;;;;;;;2.80;2.60;;;;;;;9.56;100.00;97968.72;4998536;28;20212;-70
2020/12/23 07:13:20;;;;;;;3.40;2.87;;;;;;;9.62;100.00;97967.22;5001000;28;20212;-71
2020/12/23 07:15:55;;;;;;;3.43;3.10;;;;;;;9.61;100.00;97971.72;4995471;28;20328;-71
2020/12/23 07:18:28;;;;;;;3.50;3.27;;;;;;;9.59;100.00;97959.63;5000135;28;20416;-74
2020/12/23 07:21:02;;;;;;;3.60;3.30;;;;;;;9.55;100.00;97969.72;5005264;28;20212;-73
2020/12/23 07:23:30;;;;;;;3.83;3.20;;;;;;;9.60;100.00;97977.16;5008299;28;20205;-71
2020/12/23 07:25:58;;;;;;;3.60;3.30;;;;;;;9.53;100.00;97991.00;5000613;28;20208;-71
2020/12/23 07:28:27;;;;;;;20.53;11.00;;;;;;;9.51;100.00;97994.81;5003083;28;20225;-72
2020/12/23 07:30:54;;;;;;;3.97;3.13;;;;;;;9.52;100.00;97989.34;5002146;28;20216;-73
2020/12/23 07:33:22;;;;;;;5.87;4.33;;;;;;;9.54;100.00;97981.28;5003693;28;20213;-73
2020/12/23 07:35:52;;;;;;;3.77;3.47;;;;;;;9.59;100.00;97983.44;4996564;28;20236;-73
2020/12/23 07:38:20;;;;;;;4.13;3.83;;;;;;;9.54;100.00;97987.38;4998461;28;20255;-72
2020/12/23 07:40:48;;;;;;;2.63;2.53;;;;;;;9.58;100.00;97979.13;4996816;28;20569;-72
2020/12/23 07:43:16;;;;;;;2.73;2.60;;;;;;;9.51;100.00;97982.41;4999288;28;20640;-74
2020/12/23 07:45:44;;;;;;;2.77;2.63;;;;;;;9.49;100.00;97979.09;5001239;28;20212;-74
2020/12/23 07:48:11;;;;;;;2.60;2.50;;;;;;;9.49;100.00;97979.09;5001414;28;20315;-72
2020/12/23 07:50:40;;;;;;;1.40;1.40;;;;;;;9.47;100.00;97978.41;5000903;28;20204;-71
2020/12/23 07:53:15;;;;;;;1.90;1.37;;;;;;;9.48;100.00;97969.50;4998258;28;20338;-71
2020/12/23 07:55:43;;;;;;;1.77;1.67;;;;;;;9.48;100.00;97972.13;5001744;28;20771;-72
2020/12/23 07:58:11;;;;;;;1.20;1.20;;;;;;;9.54;100.00;97975.97;5000308;28;20225;-73
2020/12/23 08:00:39;;;;;;;1.20;1.20;;;;;;;9.51;100.00;97973.66;4999081;28;20236;-72
2020/12/23 08:03:07;;;;;;;1.47;1.37;;;;;;;9.60;100.00;97975.34;5001859;28;20593;-72
2020/12/23 08:05:34;;;;;;;1.60;1.50;;;;;;;9.50;100.00;97974.66;5000817;28;20696;-72
2020/12/23 08:08:26;;;;;;;0.93;0.93;;;;;;;9.56;100.00;97974.00;5002173;28;20772;-72
2020/12/23 08:10:53;;;;;;;1.10;1.10;;;;;;;9.61;100.00;97978.81;5002569;28;20624;-74
2020/12/23 08:13:26;;;;;;;1.10;1.10;;;;;;;9.59;100.00;97983.44;4996325;28;20387;-71
2020/12/23 08:16:04;;;;;;;1.10;1.10;;;;;;;9.56;100.00;97979.31;5007520;28;20604;-72
2020/12/23 08:18:31;;;;;;;1.60;1.50;;;;;;;9.49;100.00;97978.28;5001431;28;20947;-71
2020/12/23 08:20:58;;;;;;;2.03;1.77;;;;;;;9.58;100.00;97976.47;5004779;28;20208;-73
2020/12/23 08:23:25;;;;;;;1.50;1.50;;;;;;;9.57;100.00;97970.38;5007508;28;20905;-72
2020/12/23 08:25:52;;;;;;;2.00;1.90;;;;;;;9.50;100.00;97980.75;5008311;28;20207;-71
2020/12/23 08:28:22;;;;;;;1.30;1.30;;;;;;;9.57;100.00;97980.97;5003765;28;20933;-72
2020/12/23 08:30:49;;;;;;;9.33;7.13;;;;;;;9.42;100.00;97986.00;5004418;28;20205;-72
2020/12/23 08:33:17;;;;;;;8.93;5.77;;;;;;;9.52;100.00;97977.97;5000965;28;20666;-71
2020/12/23 08:35:46;;;;;;;4.07;3.77;;;;;;;9.42;100.00;97972.78;5001001;28;20225;-71
2020/12/23 08:38:16;;;;;;;25.27;20.73;;;;;;;9.36;100.00;97976.88;5004100;28;20323;-72
2020/12/23 08:40:49;;;;;;;5.50;5.00;;;;;;;9.44;100.00;97960.22;5005967;28;20201;-73
2020/12/23 08:43:20;;;;;;;4.03;3.07;;;;;;;9.47;100.00;97964.34;5004492;28;20251;-72
2020/12/23 08:45:47;;;;;;;33.83;30.23;;;;;;;9.44;100.00;97965.50;5004823;28;20208;-71
2020/12/23 08:48:18;;;;;;;7.63;6.93;;;;;;;9.58;100.00;97958.81;5002583;28;20233;-72
2020/12/23 08:50:52;;;;;;;9.60;8.90;;;;;;;9.57;100.00;97957.16;5007205;28;20205;-72
2020/12/23 08:53:19;;;;;;;5.53;5.20;;;;;;;9.54;100.00;97970.69;5003706;28;20204;-71
2020/12/23 08:55:46;;;;;;;4.90;4.50;;;;;;;9.47;100.00;97967.00;5004834;28;20685;-72
2020/12/23 08:58:14;;;;;;;4.13;3.83;;;;;;;9.47;100.00;97973.13;5002320;28;20228;-70
2020/12/23 09:00:41;;;;;;;6.07;5.20;;;;;;;9.50;100.00;97972.81;5001736;28;20213;-73
2020/12/23 09:03:20;;;;;;;5.73;5.33;;;;;;;9.49;100.00;97975.63;5004932;28;20210;-71
2020/12/23 09:05:47;;;;;;;5.27;4.87;;;;;;;9.42;100.00;97983.34;5001477;28;20236;-72
2020/12/23 09:08:14;;;;;;;5.30;4.90;;;;;;;9.44;100.00;97985.81;5003804;28;20237;-72
2020/12/23 09:10:52;;;;;;;5.07;4.67;;;;;;;9.48;100.00;97979.25;5001785;28;20209;-73
2020/12/23 09:13:19;;;;;;;4.23;3.97;;;;;;;9.45;100.00;97980.41;5002508;28;20212;-72
2020/12/23 09:15:52;;;;;;;4.97;4.57;;;;;;;9.53;100.00;97988.38;5001140;28;20290;-72
2020/12/23 09:18:19;;;;;;;4.97;4.20;;;;;;;9.44;100.00;97989.31;5002586;28;20255;-73
2020/12/23 09:20:46;;;;;;;4.43;4.13;;;;;;;9.42;100.00;97986.00;5000297;28;20201;-73
2020/12/23 09:23:19;;;;;;;6.53;5.93;;;;;;;9.42;100.00;97972.78;5005866;28;20212;-74
2020/12/23 09:25:46;;;;;;;6.53;5.20;;;;;;;9.44;100.00;97969.97;5000789;28;20291;-71
2020/12/23 09:28:14;;;;;;;5.97;5.47;;;;;;;9.39;100.00;97963.31;5005346;28;20247;-73
2020/12/23 09:30:44;;;;;;;5.53;5.03;;;;;;;9.47;100.00;97967.84;4999891;28;20217;-72
2020/12/23 09:33:12;;;;;;;4.47;4.07;;;;;;;9.49;100.00;97965.06;5000293;28;20426;-72
2020/12/23 09:35:40;;;;;;;4.03;3.73;;;;;;;9.50;100.00;97964.88;4999668;28;20225;-71
2020/12/23 09:38:10;;;;;;;3.63;3.43;;;;;;;9.52;100.00;97965.53;5009432;28;20714;-72
2020/12/23 09:40:39;;;;;;;4.63;3.87;;;;;;;9.50;100.00;97962.22;5002908;28;20213;-71
2020/12/23 09:43:11;;;;;;;3.30;3.10;;;;;;;9.59;100.00;97962.25;5004498;28;20673;-73
2020/12/23 09:45:38;;;;;;;4.37;3.63;;;;;;;9.63;100.00;97958.31;5007538;28;20239;-72
2020/12/23 09:48:06;;;;;;;4.83;3.33;;;;;;;9.67;100.00;97957.84;5002230;28;20236;-71
2020/12/23 09:50:33;;;;;;;4.70;3.30;;;;;;;9.61;100.00;97945.25;5007260;28;20284;-73
2020/12/23 09:53:01;;;;;;;5.47;3.63;;;;;;;9.70;100.00;97938.19;5002254;28;20208;-72
2020/12/23 09:55:29;;;;;;;3.80;3.50;;;;;;;9.59;100.00;97936.66;5000650;28;20350;-73
2020/12/23 09:57:57;;;;;;;4.07;3.67;;;;;;;9.61;100.00;97925.88;5002105;28;20747;-71
2020/12/23 10:00:24;;;;;;;7.80;3.40;;;;;;;9.97;100.00;97928.31;5004845;28;20292;-71
2020/12/23 10:02:52;;;;;;;3.07;2.80;;;;;;;9.77;100.00;97912.72;5005547;28;20682;-72
2020/12/23 10:05:19;;;;;;;4.00;3.37;;;;;;;9.76;100.00;97920.81;4998066;28;20201;-72
2020/12/23 10:07:46;;;;;;;3.33;3.13;;;;;;;9.84;100.00;97913.75;5003800;28;20225;-72
2020/12/23 10:10:13;;;;;;;3.97;2.70;;;;;;;9.82;100.00;97921.00;4993884;28;20208;-72
2020/12/23 10:12:40;;;;;;;3.70;3.40;;;;;;;10.07;100.00;97886.66;4999348;28;20544;-71
2020/12/23 10:15:08;;;;;;;6.53;5.10;;;;;;;9.88;100.00;97908.97;4999935;28;20235;-71
2020/12/23 10:17:36;;;;;;;6.67;5.80;;;;;;;9.78;100.00;97903.81;5001716;28;20224;-72
2020/12/23 10:20:03;;;;;;;5.17;4.70;;;;;;;9.89;100.00;97904.47;4997890;28;20209;-71
2020/12/23 10:22:32;;;;;;;6.70;5.40;;;;;;;10.24;100.00;97894.63;5002092;28;20224;-69
2020/12/23 10:24:59;;;;;;;4.70;4.30;;;;;;;10.14;100.00;97890.31;5004055;28;20201;-70
2020/12/23 10:27:26;;;;;;;5.47;5.07;;;;;;;10.29;100.00;97894.94;5004998;28;20227;-69
2020/12/23 10:29:53;;;;;;;6.80;5.03;;;;;;;10.40;100.00;97886.69;5005496;28;20505;-73
2020/12/23 10:32:20;;;;;;;4.80;4.50;;;;;;;10.41;100.00;97885.69;5005943;28;20209;-70
2020/12/23 10:34:47;;;;;;;5.53;5.03;;;;;;;10.41;100.00;97869.00;5000666;28;20229;-73
2020/12/23 10:37:14;;;;;;;6.33;5.73;;;;;;;10.53;100.00;97872.16;5001286;28;20216;-70
2020/12/23 10:39:56;;;;;;;5.17;4.87;;;;;;;10.56;100.00;97869.16;5000218;28;20210;-69
2020/12/23 10:42:24;;;;;;;5.53;5.10;;;;;;;10.41;100.00;97866.34;5000534;28;20463;-71
2020/12/23 10:44:51;;;;;;;5.50;4.90;;;;;;;10.32;100.00;97862.84;4997715;28;20203;-73
2020/12/23 10:47:29;;;;;;;5.50;5.00;;;;;;;10.49;100.00;97850.44;5002585;28;20236;-72
2020/12/23 10:49:56;;;;;;;5.40;5.00;;;;;;;10.40;100.00;97849.59;5004001;28;20205;-70
2020/12/23 10:52:23;;;;;;;5.50;5.03;;;;;;;10.47;100.00;97844.47;5006977;28;20213;-72
2020/12/23 10:54:50;;;;;;;5.90;5.40;;;;;;;10.54;100.00;97856.06;4999703;28;20229;-70
2020/12/23 10:57:18;;;;;;;5.47;4.93;;;;;;;10.49;100.00;97845.13;5003433;28;20692;-71
2020/12/23 10:59:45;;;;;;;5.60;5.10;;;;;;;10.45;100.00;97838.53;4999458;28;20707;-70
2020/12/23 11:02:12;;;;;;;5.50;5.10;;;;;;;10.60;100.00;97832.53;4999575;28;20542;-72
2020/12/23 11:04:39;;;;;;;6.40;5.90;;;;;;;10.67;100.00;97822.94;4998714;28;20202;-70
2020/12/23 11:07:06;;;;;;;5.80;4.90;;;;;;;10.89;100.00;97834.66;4997030;28;20217;-71
2020/12/23 11:09:34;;;;;;;5.40;5.03;;;;;;;10.93;100.00;97824.50;5001556;28;20229;-70
2020/12/23 11:12:01;;;;;;;5.87;5.37;;;;;;;10.92;100.00;97830.81;4999691;28;20942;-70
2020/12/23 11:14:28;;;;;;;5.40;5.10;;;;;;;10.86;100.00;97816.44;5000419;28;20219;-71
2020/12/23 11:16:55;;;;;;;5.17;4.87;;;;;;;10.98;100.00;97814.22;4999888;28;20209;-72
2020/12/23 11:19:22;;;;;;;5.40;5.00;;;;;;;10.90;100.00;97809.78;5001456;28;20232;-70
2020/12/23 11:21:50;;;;;;;4.90;4.60;;;;;;;11.06;100.00;97806.25;4996841;28;20697;-71
2020/12/23 11:24:16;;;;;;;5.40;5.00;;;;;;;11.07;100.00;97801.75;4998801;28;20212;-71
2020/12/23 11:26:43;;;;;;;4.50;4.20;;;;;;;11.05;100.00;97803.75;5000627;28;20251;-73
2020/12/23 11:29:11;;;;;;;4.77;4.43;;;;;;;10.94;100.00;97805.78;5001461;28;20727;-71
2020/12/23 11:31:38;;;;;;;5.20;4.80;;;;;;;11.10;100.00;97794.31;5001027;28;20509;-72
2020/12/23 11:34:05;;;;;;;6.13;5.37;;;;;;;11.05;100.00;97794.00;5004930;28;20208;-71